createdAt,value
2019-01-15T00:00:59.133Z,941.98
2019-01-15T00:01:59.123Z,942.01
2019-01-15T00:02:58.940Z,942.04
2019-01-15T00:03:58.817Z,942.01
2019-01-15T00:04:58.708Z,942.00
2019-01-15T00:05:58.607Z,942.04
2019-01-15T00:06:58.500Z,942.05
2019-01-15T00:07:58.415Z,941.92
2019-01-15T00:08:58.391Z,942.07
2019-01-15T00:09:58.186Z,942.08
2019-01-15T00:10:58.086Z,942.10
2019-01-15T00:11:57.983Z,942.10
2019-01-15T00:12:57.874Z,942.10
2019-01-15T00:13:57.785Z,942.03
2019-01-15T00:14:57.664Z,941.95
2019-01-15T00:15:57.666Z,941.94
2019-01-15T00:16:57.454Z,941.93
2019-01-15T00:17:57.352Z,941.97
2019-01-15T00:18:57.265Z,942.01
2019-01-15T00:19:57.148Z,941.97
2019-01-15T00:20:57.038Z,941.96
2019-01-15T00:21:56.934Z,941.94
2019-01-15T00:22:56.936Z,941.92
2019-01-15T00:23:56.743Z,941.96
2019-01-15T00:24:56.622Z,941.96
2019-01-15T00:25:56.522Z,941.90
2019-01-15T00:26:56.413Z,941.94
2019-01-15T00:27:56.313Z,941.99
2019-01-15T00:28:56.216Z,941.95
2019-01-15T00:29:56.203Z,941.89
2019-01-15T00:30:55.995Z,941.90
2019-01-15T00:31:55.889Z,941.87
2019-01-15T00:32:55.790Z,941.82
2019-01-15T00:33:55.699Z,941.84
2019-01-15T00:34:55.577Z,941.90
2019-01-15T00:35:55.475Z,941.89
2019-01-15T00:36:55.469Z,941.85
2019-01-15T00:37:55.264Z,941.84
2019-01-15T00:38:55.175Z,941.92
2019-01-15T00:39:55.053Z,941.90
2019-01-15T00:40:54.953Z,941.90
2019-01-15T00:41:54.845Z,941.91
2019-01-15T00:42:54.743Z,942.01
2019-01-15T00:43:54.757Z,941.96
2019-01-15T00:44:54.536Z,941.98
2019-01-15T00:45:54.430Z,941.96
2019-01-15T00:46:54.323Z,941.96
2019-01-15T00:47:54.220Z,941.96
2019-01-15T00:48:54.128Z,941.98
2019-01-15T00:49:54.112Z,941.99
2019-01-15T00:50:53.908Z,942.02
2019-01-15T00:51:53.801Z,941.99
2019-01-15T00:52:53.700Z,942.04
2019-01-15T00:53:53.608Z,941.97
2019-01-15T00:54:53.493Z,941.97
2019-01-15T00:55:53.388Z,941.97
2019-01-15T00:56:53.280Z,942.03
2019-01-15T00:57:53.279Z,942.01
2019-01-15T00:58:53.086Z,942.03
2019-01-15T00:59:52.971Z,942.09
2019-01-15T01:00:52.865Z,942.11
2019-01-15T01:01:52.756Z,942.14
2019-01-15T01:02:52.655Z,942.16
2019-01-15T01:03:52.665Z,942.19
2019-01-15T01:04:52.449Z,942.28
2019-01-15T01:05:52.343Z,942.33
2019-01-15T01:06:52.236Z,942.29
2019-01-15T01:07:52.133Z,942.26
2019-01-15T01:08:52.049Z,942.29
2019-01-15T01:09:51.925Z,942.30
2019-01-15T01:10:51.817Z,942.34
2019-01-15T01:11:51.716Z,942.34
2019-01-15T01:12:51.611Z,942.30
2019-01-15T01:13:51.522Z,942.33
2019-01-15T01:14:51.404Z,942.29
2019-01-15T01:15:51.299Z,942.29
2019-01-15T01:16:51.188Z,942.30
2019-01-15T01:17:51.086Z,942.29
2019-01-15T01:18:51.004Z,942.32
2019-01-15T01:19:50.884Z,942.35
2019-01-15T01:20:50.773Z,942.36
2019-01-15T01:21:50.673Z,942.32
2019-01-15T01:22:50.588Z,942.37
2019-01-15T01:23:50.480Z,942.35
2019-01-15T01:24:50.359Z,942.36
2019-01-15T01:25:50.257Z,942.37
2019-01-15T01:26:50.149Z,942.32
2019-01-15T01:27:50.044Z,942.31
2019-01-15T01:28:49.959Z,942.33
2019-01-15T01:29:49.839Z,942.35
2019-01-15T01:30:49.730Z,942.37
2019-01-15T01:31:49.629Z,942.39
2019-01-15T01:32:49.525Z,942.33
2019-01-15T01:33:49.439Z,942.30
2019-01-15T01:34:49.313Z,942.33
2019-01-15T01:35:49.212Z,942.38
2019-01-15T01:36:49.103Z,942.38
2019-01-15T01:37:49.002Z,942.37
2019-01-15T01:38:48.914Z,942.38
2019-01-15T01:39:48.793Z,942.35
2019-01-15T01:40:48.693Z,942.35
2019-01-15T01:41:48.588Z,942.38
2019-01-15T01:42:48.480Z,942.33
2019-01-15T01:43:48.394Z,942.39
2019-01-15T01:44:48.273Z,942.41
2019-01-15T01:45:48.169Z,942.41
2019-01-15T01:46:48.061Z,942.41
2019-01-15T01:47:47.960Z,942.41
2019-01-15T01:48:47.872Z,942.36
2019-01-15T01:49:47.747Z,942.37
2019-01-15T01:50:47.646Z,942.36
2019-01-15T01:51:47.542Z,942.34
2019-01-15T01:52:47.437Z,942.33
2019-01-15T01:53:47.334Z,942.36
2019-01-15T01:54:47.244Z,942.36
2019-01-15T01:55:47.125Z,942.38
2019-01-15T01:56:47.018Z,942.39
2019-01-15T01:57:46.913Z,942.37
2019-01-15T01:58:46.827Z,942.41
2019-01-15T01:59:46.714Z,942.45
2019-01-15T02:00:46.601Z,942.35
2019-01-15T02:01:46.499Z,942.45
2019-01-15T02:02:46.396Z,942.43
2019-01-15T02:03:46.297Z,942.41
2019-01-15T02:04:46.202Z,942.45
2019-01-15T02:05:46.080Z,942.34
2019-01-15T02:06:45.979Z,942.38
2019-01-15T02:07:45.876Z,942.36
2019-01-15T02:08:45.772Z,942.38
2019-01-15T02:09:45.738Z,942.34
2019-01-15T02:10:45.559Z,942.38
2019-01-15T02:11:45.456Z,942.38
2019-01-15T02:12:45.350Z,942.32
2019-01-15T02:13:45.249Z,942.27
2019-01-15T02:14:45.162Z,942.26
2019-01-15T02:15:45.039Z,942.36
2019-01-15T02:16:44.933Z,942.36
2019-01-15T02:17:44.833Z,942.39
2019-01-15T02:18:44.729Z,942.36
2019-01-15T02:19:44.640Z,942.38
2019-01-15T02:20:44.615Z,942.40
2019-01-15T02:21:44.415Z,942.38
2019-01-15T02:22:44.311Z,942.41
2019-01-15T02:23:44.203Z,942.36
2019-01-15T02:24:44.147Z,942.38
2019-01-15T02:25:43.996Z,942.43
2019-01-15T02:26:43.892Z,942.47
2019-01-15T02:27:43.891Z,942.45
2019-01-15T02:28:43.682Z,942.47
2019-01-15T02:29:43.596Z,942.48
2019-01-15T02:30:43.482Z,942.53
2019-01-15T02:31:43.373Z,942.54
2019-01-15T02:32:43.264Z,942.51
2019-01-15T02:33:43.160Z,942.49
2019-01-15T02:34:43.176Z,942.50
2019-01-15T02:35:42.954Z,942.52
2019-01-15T02:36:42.850Z,942.52
2019-01-15T02:37:42.745Z,942.53
2019-01-15T02:38:42.641Z,942.53
2019-01-15T02:39:42.552Z,942.55
2019-01-15T02:40:42.432Z,942.51
2019-01-15T02:41:42.431Z,942.54
2019-01-15T02:42:46.643Z,942.59
2019-01-15T02:43:42.119Z,942.51
2019-01-15T02:44:42.031Z,942.51
2019-01-15T02:45:41.913Z,942.53
2019-01-15T02:46:41.804Z,942.56
2019-01-15T02:47:41.699Z,942.57
2019-01-15T02:48:41.696Z,942.54
2019-01-15T02:49:41.510Z,942.56
2019-01-15T02:50:41.386Z,942.51
2019-01-15T02:51:41.283Z,942.50
2019-01-15T02:52:41.179Z,942.50
2019-01-15T02:53:41.083Z,942.50
2019-01-15T02:54:40.992Z,942.51
2019-01-15T02:55:40.865Z,942.53
2019-01-15T02:56:40.860Z,942.55
2019-01-15T02:57:40.658Z,942.50
2019-01-15T02:58:40.554Z,942.54
2019-01-15T02:59:40.466Z,942.57
2019-01-15T03:00:40.345Z,942.57
2019-01-15T03:01:40.240Z,942.56
2019-01-15T03:02:40.136Z,942.53
2019-01-15T03:03:40.136Z,942.58
2019-01-15T03:04:39.942Z,942.53
2019-01-15T03:05:39.821Z,942.60
2019-01-15T03:06:39.720Z,942.59
2019-01-15T03:07:39.611Z,942.56
2019-01-15T03:08:39.533Z,942.55
2019-01-15T03:09:39.421Z,942.55
2019-01-15T03:10:39.401Z,942.57
2019-01-15T03:11:39.197Z,942.60
2019-01-15T03:12:39.093Z,942.56
2019-01-15T03:13:38.988Z,942.54
2019-01-15T03:14:38.903Z,942.52
2019-01-15T03:15:38.779Z,942.58
2019-01-15T03:16:38.672Z,942.51
2019-01-15T03:17:38.671Z,942.52
2019-01-15T03:18:38.466Z,942.52
2019-01-15T03:19:38.377Z,942.56
2019-01-15T03:20:38.257Z,942.50
2019-01-15T03:21:38.151Z,942.48
2019-01-15T03:22:38.048Z,942.49
2019-01-15T03:23:37.942Z,942.51
2019-01-15T03:24:37.960Z,942.53
2019-01-15T03:25:37.739Z,942.54
2019-01-15T03:26:37.629Z,942.50
2019-01-15T03:27:37.527Z,942.44
2019-01-15T03:28:37.427Z,942.57
2019-01-15T03:29:37.337Z,942.54
2019-01-15T03:30:37.223Z,942.55
2019-01-15T03:31:37.213Z,942.61
2019-01-15T03:32:37.010Z,942.61
2019-01-15T03:33:36.899Z,942.62
2019-01-15T03:34:36.813Z,942.56
2019-01-15T03:35:36.692Z,942.64
2019-01-15T03:36:37.746Z,942.61
2019-01-15T03:37:36.483Z,942.60
2019-01-15T03:38:36.479Z,942.63
2019-01-15T03:39:36.280Z,942.62
2019-01-15T03:40:36.182Z,942.62
2019-01-15T03:41:36.067Z,942.64
2019-01-15T03:42:35.960Z,942.66
2019-01-15T03:43:35.855Z,942.66
2019-01-15T03:44:35.871Z,942.66
2019-01-15T03:45:35.645Z,942.66
2019-01-15T03:46:35.546Z,942.63
2019-01-15T03:47:35.452Z,942.63
2019-01-15T03:48:35.333Z,942.64
2019-01-15T03:49:35.233Z,942.65
2019-01-15T03:50:35.141Z,942.62
2019-01-15T03:51:35.022Z,942.64
2019-01-15T03:52:34.916Z,942.62
2019-01-15T03:53:34.811Z,942.62
2019-01-15T03:54:34.711Z,942.63
2019-01-15T03:55:34.618Z,942.63
2019-01-15T03:56:34.503Z,942.65
2019-01-15T03:57:34.392Z,942.66
2019-01-15T03:58:34.292Z,942.69
2019-01-15T03:59:34.186Z,942.70
2019-01-15T04:00:34.104Z,942.67
2019-01-15T04:01:33.980Z,942.65
2019-01-15T04:02:33.876Z,942.74
2019-01-15T04:03:33.771Z,942.73
2019-01-15T04:04:33.665Z,942.71
2019-01-15T04:05:33.581Z,942.78
2019-01-15T04:06:33.455Z,942.77
2019-01-15T04:07:33.351Z,942.73
2019-01-15T04:08:33.245Z,942.78
2019-01-15T04:09:33.141Z,942.75
2019-01-15T04:10:33.058Z,942.78
2019-01-15T04:11:32.940Z,942.76
2019-01-15T04:12:32.830Z,942.76
2019-01-15T04:13:32.726Z,942.79
2019-01-15T04:14:32.620Z,942.82
2019-01-15T04:15:32.534Z,942.79
2019-01-15T04:16:32.412Z,942.82
2019-01-15T04:17:32.310Z,942.84
2019-01-15T04:18:32.209Z,942.82
2019-01-15T04:19:32.101Z,942.87
2019-01-15T04:20:32.022Z,942.91
2019-01-15T04:21:31.895Z,942.94
2019-01-15T04:22:31.787Z,942.96
2019-01-15T04:23:31.684Z,942.96
2019-01-15T04:24:31.577Z,942.96
2019-01-15T04:25:31.506Z,942.96
2019-01-15T04:26:31.374Z,942.94
2019-01-15T04:27:31.265Z,942.93
2019-01-15T04:28:31.161Z,942.96
2019-01-15T04:29:31.058Z,943.03
2019-01-15T04:30:30.976Z,943.05
2019-01-15T04:31:30.850Z,943.03
2019-01-15T04:32:30.751Z,943.09
2019-01-15T04:33:30.639Z,943.09
2019-01-15T04:34:30.540Z,943.10
2019-01-15T04:35:30.449Z,943.09
2019-01-15T04:36:30.328Z,943.11
2019-01-15T04:37:30.225Z,943.05
2019-01-15T04:38:30.119Z,943.09
2019-01-15T04:39:30.111Z,943.05
2019-01-15T04:40:29.942Z,943.07
2019-01-15T04:41:29.808Z,943.07
2019-01-15T04:42:29.703Z,943.07
2019-01-15T04:43:29.607Z,943.11
2019-01-15T04:44:29.494Z,943.07
2019-01-15T04:45:29.412Z,943.09
2019-01-15T04:46:29.286Z,943.12
2019-01-15T04:47:29.186Z,943.10
2019-01-15T04:48:29.093Z,943.11
2019-01-15T04:49:28.973Z,943.11
2019-01-15T04:50:28.896Z,943.04
2019-01-15T04:51:28.768Z,943.09
2019-01-15T04:52:28.664Z,943.02
2019-01-15T04:53:28.556Z,943.10
2019-01-15T04:54:28.456Z,943.10
2019-01-15T04:55:28.370Z,943.07
2019-01-15T04:56:28.249Z,943.10
2019-01-15T04:57:28.145Z,943.10
2019-01-15T04:58:28.037Z,943.06
2019-01-15T04:59:27.934Z,943.10
2019-01-15T05:00:27.849Z,943.10
2019-01-15T05:01:27.845Z,943.09
2019-01-15T05:02:27.620Z,943.08
2019-01-15T05:03:27.515Z,943.08
2019-01-15T05:04:27.411Z,943.14
2019-01-15T05:05:27.327Z,943.13
2019-01-15T05:06:27.215Z,943.15
2019-01-15T05:07:27.100Z,943.15
2019-01-15T05:08:27.099Z,943.13
2019-01-15T05:09:26.892Z,943.13
2019-01-15T05:10:26.806Z,943.13
2019-01-15T05:11:26.688Z,943.12
2019-01-15T05:12:26.578Z,943.13
2019-01-15T05:13:27.531Z,943.14
2019-01-15T05:14:26.376Z,943.22
2019-01-15T05:15:26.387Z,943.19
2019-01-15T05:16:26.171Z,943.19
2019-01-15T05:17:26.059Z,943.13
2019-01-15T05:18:25.967Z,943.16
2019-01-15T05:19:25.864Z,943.19
2019-01-15T05:20:25.785Z,943.13
2019-01-15T05:21:25.647Z,943.20
2019-01-15T05:22:25.639Z,943.17
2019-01-15T05:23:25.440Z,943.11
2019-01-15T05:24:25.333Z,943.08
2019-01-15T05:25:25.245Z,943.12
2019-01-15T05:26:25.123Z,943.11
2019-01-15T05:27:25.018Z,943.10
2019-01-15T05:28:24.917Z,943.08
2019-01-15T05:29:24.923Z,943.10
2019-01-15T05:30:24.714Z,943.07
2019-01-15T05:31:24.622Z,943.11
2019-01-15T05:32:24.500Z,943.11
2019-01-15T05:33:24.393Z,943.13
2019-01-15T05:34:24.291Z,943.13
2019-01-15T05:35:24.191Z,943.15
2019-01-15T05:36:24.200Z,943.13
2019-01-15T05:37:23.982Z,943.19
2019-01-15T05:38:23.873Z,943.26
2019-01-15T05:39:23.772Z,943.31
2019-01-15T05:40:23.674Z,943.28
2019-01-15T05:41:23.578Z,943.43
2019-01-15T05:42:23.457Z,943.44
2019-01-15T05:43:23.459Z,943.51
2019-01-15T05:44:23.254Z,943.46
2019-01-15T05:45:23.147Z,943.41
2019-01-15T05:46:23.056Z,943.49
2019-01-15T05:47:22.953Z,943.43
2019-01-15T05:48:22.834Z,943.49
2019-01-15T05:49:22.733Z,943.48
2019-01-15T05:50:22.727Z,943.48
2019-01-15T05:51:22.543Z,943.55
2019-01-15T05:52:22.415Z,943.55
2019-01-15T05:53:22.316Z,943.55
2019-01-15T05:54:22.207Z,943.55
2019-01-15T05:55:22.103Z,943.59
2019-01-15T05:56:22.015Z,943.57
2019-01-15T05:57:22.008Z,943.62
2019-01-15T05:58:21.793Z,943.59
2019-01-15T05:59:21.689Z,943.61
2019-01-15T06:00:21.583Z,943.64
2019-01-15T06:01:21.497Z,943.61
2019-01-15T06:02:21.375Z,943.61
2019-01-15T06:03:21.401Z,943.65
2019-01-15T06:04:21.166Z,943.71
2019-01-15T06:05:21.062Z,943.70
2019-01-15T06:06:20.977Z,943.71
2019-01-15T06:07:20.856Z,943.72
2019-01-15T06:08:20.755Z,943.68
2019-01-15T06:09:20.646Z,943.66
2019-01-15T06:10:20.541Z,943.68
2019-01-15T06:11:20.559Z,943.64
2019-01-15T06:12:20.338Z,943.64
2019-01-15T06:13:20.233Z,943.67
2019-01-15T06:14:20.131Z,943.69
2019-01-15T06:15:20.040Z,943.66
2019-01-15T06:16:19.935Z,943.65
2019-01-15T06:17:19.942Z,943.69
2019-01-15T06:18:19.715Z,943.66
2019-01-15T06:19:19.612Z,943.68
2019-01-15T06:20:19.504Z,943.68
2019-01-15T06:21:19.416Z,943.72
2019-01-15T06:22:19.296Z,943.72
2019-01-15T06:23:19.194Z,943.75
2019-01-15T06:24:19.090Z,943.71
2019-01-15T06:25:18.986Z,943.70
2019-01-15T06:26:18.896Z,943.73
2019-01-15T06:27:18.774Z,943.81
2019-01-15T06:28:18.672Z,943.77
2019-01-15T06:29:18.572Z,943.78
2019-01-15T06:30:18.465Z,943.79
2019-01-15T06:31:18.376Z,943.74
2019-01-15T06:32:18.255Z,943.75
2019-01-15T06:33:18.156Z,943.75
2019-01-15T06:34:18.045Z,943.80
2019-01-15T06:35:17.943Z,943.81
2019-01-15T06:36:17.857Z,943.78
2019-01-15T06:37:17.734Z,943.77
2019-01-15T06:38:17.631Z,943.79
2019-01-15T06:39:17.530Z,943.81
2019-01-15T06:40:17.425Z,943.78
2019-01-15T06:41:17.341Z,943.83
2019-01-15T06:42:17.216Z,943.83
2019-01-15T06:43:17.114Z,943.85
2019-01-15T06:44:17.011Z,943.85
2019-01-15T06:45:16.904Z,943.85
2019-01-15T06:46:16.818Z,943.88
2019-01-15T06:47:16.695Z,943.76
2019-01-15T06:48:17.147Z,943.82
2019-01-15T06:49:16.490Z,943.80
2019-01-15T06:50:16.387Z,943.72
2019-01-15T06:51:16.316Z,943.76
2019-01-15T06:52:16.177Z,943.75
2019-01-15T06:53:16.074Z,943.79
2019-01-15T06:54:15.968Z,943.78
2019-01-15T06:55:15.870Z,943.77
2019-01-15T06:56:15.776Z,943.73
2019-01-15T06:57:15.655Z,943.76
2019-01-15T06:58:15.556Z,943.82
2019-01-15T06:59:15.447Z,943.81
2019-01-15T07:00:15.344Z,943.84
2019-01-15T07:01:15.270Z,943.80
2019-01-15T07:02:15.137Z,943.84
2019-01-15T07:03:15.042Z,943.79
2019-01-15T07:04:14.926Z,943.81
2019-01-15T07:05:14.825Z,943.88
2019-01-15T07:06:14.741Z,943.82
2019-01-15T07:07:14.619Z,943.75
2019-01-15T07:08:14.510Z,943.83
2019-01-15T07:09:14.410Z,943.82
2019-01-15T07:10:14.308Z,943.82
2019-01-15T07:11:14.202Z,943.93
2019-01-15T07:12:14.114Z,943.88
2019-01-15T07:13:13.996Z,943.90
2019-01-15T07:14:13.892Z,943.92
2019-01-15T07:15:13.788Z,943.88
2019-01-15T07:16:13.685Z,943.89
2019-01-15T07:17:13.595Z,943.88
2019-01-15T07:18:13.472Z,943.93
2019-01-15T07:19:13.390Z,943.93
2019-01-15T07:20:13.365Z,943.90
2019-01-15T07:21:13.165Z,943.86
2019-01-15T07:22:13.072Z,943.95
2019-01-15T07:23:12.953Z,943.95
2019-01-15T07:24:12.852Z,943.97
2019-01-15T07:25:12.747Z,944.04
2019-01-15T07:26:12.640Z,943.94
2019-01-15T07:27:12.557Z,943.96
2019-01-15T07:28:12.439Z,943.96
2019-01-15T07:29:12.334Z,943.98
2019-01-15T07:30:12.223Z,943.95
2019-01-15T07:31:12.124Z,943.93
2019-01-15T07:32:12.033Z,943.99
2019-01-15T07:33:11.914Z,943.97
2019-01-15T07:34:11.907Z,943.96
2019-01-15T07:35:11.708Z,943.98
2019-01-15T07:36:11.603Z,944.01
2019-01-15T07:37:11.515Z,944.01
2019-01-15T07:38:11.395Z,943.96
2019-01-15T07:39:11.291Z,943.97
2019-01-15T07:40:11.183Z,943.97
2019-01-15T07:41:11.178Z,943.91
2019-01-15T07:42:10.994Z,943.85
2019-01-15T07:43:10.871Z,943.89
2019-01-15T07:44:10.771Z,943.85
2019-01-15T07:45:10.667Z,943.92
2019-01-15T07:46:10.560Z,943.91
2019-01-15T07:47:10.473Z,943.78
2019-01-15T07:48:10.454Z,943.87
2019-01-15T07:49:10.247Z,943.93
2019-01-15T07:50:10.148Z,943.82
2019-01-15T07:51:10.043Z,943.88
2019-01-15T07:52:09.953Z,943.91
2019-01-15T07:53:09.836Z,943.94
2019-01-15T07:54:09.729Z,943.99
2019-01-15T07:55:09.750Z,943.96
2019-01-15T07:56:09.535Z,943.96
2019-01-15T07:57:09.433Z,943.97
2019-01-15T07:58:09.320Z,944.06
2019-01-15T07:59:09.213Z,944.01
2019-01-15T08:00:09.105Z,944.00
2019-01-15T08:01:09.000Z,944.09
2019-01-15T08:02:08.912Z,944.13
2019-01-15T08:03:08.796Z,944.14
2019-01-15T08:04:08.692Z,944.13
2019-01-15T08:05:08.588Z,944.10
2019-01-15T08:06:08.485Z,944.18
2019-01-15T08:07:08.395Z,944.16
2019-01-15T08:08:08.275Z,944.18
2019-01-15T08:09:08.173Z,944.24
2019-01-15T08:10:08.068Z,944.26
2019-01-15T08:11:07.962Z,944.19
2019-01-15T08:12:07.876Z,944.26
2019-01-15T08:13:07.758Z,944.23
2019-01-15T08:14:11.997Z,944.26
2019-01-15T08:15:07.550Z,944.27
2019-01-15T08:16:07.445Z,944.28
2019-01-15T08:17:07.461Z,944.20
2019-01-15T08:18:07.236Z,944.19
2019-01-15T08:19:07.134Z,944.20
2019-01-15T08:20:07.030Z,944.17
2019-01-15T08:21:06.924Z,944.16
2019-01-15T08:22:06.843Z,944.23
2019-01-15T08:23:06.723Z,944.25
2019-01-15T08:24:06.730Z,944.18
2019-01-15T08:25:06.510Z,944.24
2019-01-15T08:26:06.413Z,944.21
2019-01-15T08:27:06.319Z,944.17
2019-01-15T08:28:06.201Z,944.21
2019-01-15T08:29:06.095Z,944.22
2019-01-15T08:30:05.995Z,944.23
2019-01-15T08:31:05.994Z,944.23
2019-01-15T08:32:05.800Z,944.23
2019-01-15T08:33:05.684Z,944.23
2019-01-15T08:34:05.577Z,944.21
2019-01-15T08:35:05.484Z,944.22
2019-01-15T08:36:05.375Z,944.25
2019-01-15T08:37:05.285Z,944.27
2019-01-15T08:38:05.265Z,944.27
2019-01-15T08:39:05.060Z,944.29
2019-01-15T08:40:04.959Z,944.33
2019-01-15T08:41:04.856Z,944.23
2019-01-15T08:42:04.766Z,944.27
2019-01-15T08:43:04.647Z,944.35
2019-01-15T08:44:04.545Z,944.32
2019-01-15T08:45:04.441Z,944.36
2019-01-15T08:46:04.338Z,944.37
2019-01-15T08:47:04.249Z,944.37
2019-01-15T08:48:04.131Z,944.31
2019-01-15T08:49:04.025Z,944.36
2019-01-15T08:50:03.922Z,944.31
2019-01-15T08:51:03.823Z,944.39
2019-01-15T08:52:03.841Z,944.39
2019-01-15T08:53:03.611Z,944.34
2019-01-15T08:54:03.508Z,944.38
2019-01-15T08:55:03.404Z,944.40
2019-01-15T08:56:03.303Z,944.36
2019-01-15T08:57:03.232Z,944.30
2019-01-15T08:58:03.213Z,944.34
2019-01-15T08:59:02.991Z,944.37
2019-01-15T09:00:02.891Z,944.34
2019-01-15T09:01:02.785Z,944.32
2019-01-15T09:02:02.685Z,944.36
2019-01-15T09:03:02.597Z,944.28
2019-01-15T09:04:02.478Z,944.24
2019-01-15T09:05:02.371Z,944.28
2019-01-15T09:06:02.269Z,944.25
2019-01-15T09:07:02.167Z,944.30
2019-01-15T09:08:02.077Z,944.13
2019-01-15T09:09:01.958Z,944.30
2019-01-15T09:10:01.858Z,944.24
2019-01-15T09:11:01.753Z,944.27
2019-01-15T09:12:01.653Z,944.33
2019-01-15T09:13:01.568Z,944.30
2019-01-15T09:14:01.446Z,944.32
2019-01-15T09:15:01.342Z,944.35
2019-01-15T09:16:01.237Z,944.33
2019-01-15T09:17:01.136Z,944.41
2019-01-15T09:18:01.046Z,944.37
2019-01-15T09:19:00.929Z,944.40
2019-01-15T09:20:00.828Z,944.33
2019-01-15T09:21:00.720Z,944.31
2019-01-15T09:22:00.618Z,944.33
2019-01-15T09:23:00.533Z,944.34
2019-01-15T09:24:00.410Z,944.36
2019-01-15T09:25:00.306Z,944.41
2019-01-15T09:26:00.206Z,944.42
2019-01-15T09:27:00.099Z,944.39
2019-01-15T09:28:00.013Z,944.33
2019-01-15T09:28:59.902Z,944.37
2019-01-15T09:29:59.796Z,944.32
2019-01-15T09:30:59.687Z,944.24
2019-01-15T09:31:59.584Z,944.38
2019-01-15T09:32:59.500Z,944.38
2019-01-15T09:33:59.383Z,944.35
2019-01-15T09:34:59.285Z,944.36
2019-01-15T09:35:59.175Z,944.34
2019-01-15T09:36:59.086Z,944.29
2019-01-15T09:37:58.989Z,944.37
2019-01-15T09:38:58.869Z,944.29
2019-01-15T09:39:58.759Z,944.24
2019-01-15T09:40:58.659Z,944.37
2019-01-15T09:41:58.552Z,944.30
2019-01-15T09:42:58.512Z,944.30
2019-01-15T09:43:58.349Z,944.35
2019-01-15T09:44:58.554Z,944.40
2019-01-15T09:45:58.144Z,944.36
2019-01-15T09:46:58.039Z,944.27
2019-01-15T09:47:57.952Z,944.28
2019-01-15T09:48:57.830Z,944.28
2019-01-15T09:49:57.733Z,944.29
2019-01-15T09:50:57.627Z,944.29
2019-01-15T09:51:57.527Z,944.30
2019-01-15T09:52:57.440Z,944.33
2019-01-15T09:53:57.318Z,944.32
2019-01-15T09:54:57.243Z,944.29
2019-01-15T09:55:57.114Z,944.25
2019-01-15T09:56:57.007Z,944.24
2019-01-15T09:57:56.922Z,944.17
2019-01-15T09:58:56.800Z,944.25
2019-01-15T09:59:56.698Z,944.31
2019-01-15T10:00:56.595Z,944.20
2019-01-15T10:01:56.494Z,944.15
2019-01-15T10:02:56.406Z,944.16
2019-01-15T10:03:56.284Z,944.14
2019-01-15T10:04:56.204Z,944.11
2019-01-15T10:05:56.077Z,944.06
2019-01-15T10:06:55.978Z,944.14
2019-01-15T10:07:55.995Z,944.13
2019-01-15T10:08:55.768Z,944.15
2019-01-15T10:09:55.669Z,944.12
2019-01-15T10:10:55.569Z,944.09
2019-01-15T10:11:55.464Z,944.12
2019-01-15T10:12:55.373Z,944.09
2019-01-15T10:13:55.256Z,944.07
2019-01-15T10:14:55.150Z,944.06
2019-01-15T10:15:55.051Z,944.07
2019-01-15T10:16:54.945Z,944.09
2019-01-15T10:17:54.863Z,944.11
2019-01-15T10:18:54.739Z,944.08
2019-01-15T10:19:54.635Z,944.04
2019-01-15T10:20:54.535Z,944.08
2019-01-15T10:21:54.537Z,944.01
2019-01-15T10:22:54.345Z,943.99
2019-01-15T10:23:54.224Z,943.89
2019-01-15T10:24:54.124Z,943.97
2019-01-15T10:25:54.020Z,943.98
2019-01-15T10:26:53.919Z,943.92
2019-01-15T10:27:53.832Z,943.89
2019-01-15T10:28:53.811Z,943.90
2019-01-15T10:29:59.088Z,943.84
2019-01-15T10:30:53.509Z,943.89
2019-01-15T10:31:53.404Z,943.91
2019-01-15T10:32:53.314Z,943.91
2019-01-15T10:33:53.197Z,943.89
2019-01-15T10:34:53.098Z,943.89
2019-01-15T10:35:53.087Z,943.86
2019-01-15T10:36:52.889Z,943.89
2019-01-15T10:37:52.802Z,943.92
2019-01-15T10:38:52.691Z,943.83
2019-01-15T10:39:52.576Z,943.82
2019-01-15T10:40:52.479Z,943.77
2019-01-15T10:41:52.395Z,943.71
2019-01-15T10:42:52.372Z,943.70
2019-01-15T10:43:52.185Z,943.66
2019-01-15T10:44:52.067Z,943.67
2019-01-15T10:45:51.963Z,943.69
2019-01-15T10:46:51.860Z,943.53
2019-01-15T10:47:51.757Z,943.60
2019-01-15T10:48:51.674Z,943.60
2019-01-15T10:49:51.659Z,943.45
2019-01-15T10:50:51.453Z,943.43
2019-01-15T10:51:51.346Z,943.48
2019-01-15T10:52:51.247Z,943.39
2019-01-15T10:53:51.158Z,943.44
2019-01-15T10:54:51.038Z,943.44
2019-01-15T10:55:50.938Z,943.35
2019-01-15T10:56:50.934Z,943.40
2019-01-15T10:57:50.786Z,943.40
2019-01-15T10:58:50.646Z,943.38
2019-01-15T10:59:50.526Z,943.37
2019-01-15T11:00:50.423Z,943.37
2019-01-15T11:01:50.324Z,943.30
2019-01-15T11:02:50.217Z,943.33
2019-01-15T11:03:50.232Z,943.34
2019-01-15T11:04:50.014Z,943.36
2019-01-15T11:05:49.915Z,943.32
2019-01-15T11:06:49.807Z,943.37
2019-01-15T11:07:49.707Z,943.20
2019-01-15T11:08:49.615Z,943.27
2019-01-15T11:09:49.515Z,943.28
2019-01-15T11:10:49.499Z,943.30
2019-01-15T11:11:49.300Z,943.25
2019-01-15T11:12:49.193Z,943.30
2019-01-15T11:13:49.105Z,943.22
2019-01-15T11:14:55.843Z,943.23
2019-01-15T11:15:48.885Z,943.21
2019-01-15T11:16:48.783Z,943.26
2019-01-15T11:17:48.683Z,943.25
2019-01-15T11:18:48.598Z,943.21
2019-01-15T11:19:48.477Z,943.23
2019-01-15T11:20:48.377Z,943.26
2019-01-15T11:21:48.271Z,943.28
2019-01-15T11:22:48.170Z,943.31
2019-01-15T11:23:48.082Z,943.26
2019-01-15T11:24:47.962Z,943.22
2019-01-15T11:25:47.860Z,943.28
2019-01-15T11:26:47.758Z,943.19
2019-01-15T11:27:47.654Z,943.20
2019-01-15T11:28:47.568Z,943.12
2019-01-15T11:29:47.450Z,943.14
2019-01-15T11:30:47.345Z,943.03
2019-01-15T11:31:47.245Z,942.91
2019-01-15T11:32:47.153Z,942.97
2019-01-15T11:33:47.055Z,943.01
2019-01-15T11:34:46.936Z,942.96
2019-01-15T11:35:46.832Z,943.02
2019-01-15T11:36:46.734Z,942.99
2019-01-15T11:37:46.626Z,942.97
2019-01-15T11:38:46.541Z,942.96
2019-01-15T11:39:46.424Z,942.90
2019-01-15T11:40:46.322Z,942.70
2019-01-15T11:41:46.219Z,942.94
2019-01-15T11:42:46.117Z,942.93
2019-01-15T11:43:46.027Z,942.93
2019-01-15T11:44:45.911Z,942.88
2019-01-15T11:45:45.805Z,942.97
2019-01-15T11:46:45.718Z,942.86
2019-01-15T11:47:45.602Z,942.97
2019-01-15T11:48:45.516Z,943.00
2019-01-15T11:49:45.397Z,942.89
2019-01-15T11:50:45.295Z,942.84
2019-01-15T11:51:45.196Z,942.85
2019-01-15T11:52:45.089Z,942.93
2019-01-15T11:53:45.008Z,942.85
2019-01-15T11:54:44.887Z,942.96
2019-01-15T11:55:44.784Z,942.89
2019-01-15T11:56:44.680Z,942.89
2019-01-15T11:57:44.585Z,942.92
2019-01-15T11:58:44.490Z,942.90
2019-01-15T11:59:44.370Z,942.95
2019-01-15T12:00:44.268Z,942.83
2019-01-15T12:01:44.166Z,942.86
2019-01-15T12:02:44.067Z,942.88
2019-01-15T12:03:43.979Z,942.82
2019-01-15T12:04:43.856Z,942.97
2019-01-15T12:05:43.759Z,942.88
2019-01-15T12:06:43.655Z,942.78
2019-01-15T12:07:43.554Z,942.92
2019-01-15T12:08:43.465Z,942.92
2019-01-15T12:09:43.349Z,942.96
2019-01-15T12:10:43.246Z,942.88
2019-01-15T12:11:43.139Z,942.87
2019-01-15T12:12:43.040Z,942.83
2019-01-15T12:13:42.949Z,942.86
2019-01-15T12:14:42.836Z,942.86
2019-01-15T12:15:42.730Z,942.88
2019-01-15T12:16:42.625Z,942.90
2019-01-15T12:17:42.524Z,942.79
2019-01-15T12:18:42.440Z,942.83
2019-01-15T12:19:42.318Z,942.81
2019-01-15T12:20:42.214Z,942.89
2019-01-15T12:21:42.111Z,942.91
2019-01-15T12:22:42.011Z,942.88
2019-01-15T12:23:41.925Z,942.83
2019-01-15T12:24:41.808Z,942.93
2019-01-15T12:25:41.702Z,942.94
2019-01-15T12:26:41.602Z,942.94
2019-01-15T12:27:41.499Z,942.89